Time;durP1;ratioP1;P1;durP2;ratioP2;P2;SDS_P1;SDS_P2;PMS_P1;PMS_P2;Temp;Humidity;BMP_temperature;BMP_pressure;BME280_temperature;BME280_humidity;BME280_pressure;Samples;Min_cycle;Max_cycle;Signal;HPM_P1;HPM_P2
2023/07/04 00:01:47;;;;;;;2.60;1.57;;;;;;;15.76;100.00;95741.50;5074819;28;24664;-75
2023/07/04 00:04:15;;;;;;;3.20;1.50;;;;;;;15.82;100.00;95733.13;5071428;28;25185;-75
2023/07/04 00:06:42;;;;;;;3.08;1.80;;;;;;;15.83;100.00;95726.94;5082214;28;24492;-75
2023/07/04 00:09:08;;;;;;;3.72;1.70;;;;;;;15.91;100.00;95732.38;5071799;28;24507;-75
2023/07/04 00:11:36;;;;;;;2.72;1.70;;;;;;;15.94;100.00;95734.72;5060824;28;24435;-75
2023/07/04 00:14:03;;;;;;;2.30;1.70;;;;;;;15.91;100.00;95729.75;5072801;28;24431;-75
2023/07/04 00:16:30;;;;;;;1.40;1.30;;;;;;;15.89;100.00;95723.00;5068836;28;24431;-75
2023/07/04 00:18:56;;;;;;;2.05;1.40;;;;;;;15.87;100.00;95730.13;5068179;28;24468;-75
2023/07/04 00:21:23;;;;;;;3.20;1.60;;;;;;;15.86;100.00;95733.69;5062841;28;24457;-75
2023/07/04 00:23:52;;;;;;;3.22;1.80;;;;;;;15.76;100.00;95727.59;5072859;28;24839;-75
2023/07/04 00:26:21;;;;;;;2.60;1.63;;;;;;;15.67;100.00;95723.97;5083946;28;24503;-75
2023/07/04 00:28:49;;;;;;;3.42;1.90;;;;;;;15.57;100.00;95731.69;5055881;28;24442;-75
2023/07/04 00:31:18;;;;;;;3.08;1.70;;;;;;;15.44;100.00;95734.50;5071250;28;24438;-75
2023/07/04 00:33:45;;;;;;;2.33;1.60;;;;;;;15.48;100.00;95724.66;5075645;28;24492;-74
2023/07/04 00:36:15;;;;;;;3.50;1.60;;;;;;;15.41;100.00;95728.72;5076253;28;24434;-75
2023/07/04 00:38:41;;;;;;;4.32;1.50;;;;;;;15.40;100.00;95738.34;5067404;28;24537;-74
2023/07/04 00:41:13;;;;;;;3.17;1.85;;;;;;;15.33;100.00;95731.13;5077962;28;24458;-75
2023/07/04 00:43:58;;;;;;;2.13;1.50;;;;;;;15.44;100.00;95736.28;5080979;28;24449;-75
2023/07/04 00:46:37;;;;;;;9.05;1.90;;;;;;;15.35;100.00;95737.91;5065399;28;24971;-75
2023/07/04 00:49:06;;;;;;;3.40;1.77;;;;;;;15.40;100.00;95738.34;5072242;28;24437;-75
2023/07/04 00:51:34;;;;;;;2.45;1.75;;;;;;;15.52;100.00;95739.09;5070316;28;24987;-75
2023/07/04 00:54:00;;;;;;;4.85;1.85;;;;;;;15.54;100.00;95742.41;5060212;28;24475;-75
2023/07/04 00:56:29;;;;;;;3.30;1.52;;;;;;;15.49;100.00;95753.22;5060776;28;24431;-75
2023/07/04 00:58:59;;;;;;;2.58;1.67;;;;;;;15.47;100.00;95749.09;5071911;28;24519;-75
2023/07/04 01:01:25;;;;;;;2.63;1.65;;;;;;;15.44;100.00;95742.34;5067634;28;24457;-75
2023/07/04 01:03:53;;;;;;;2.15;1.60;;;;;;;15.46;100.00;95743.06;5066110;28;24443;-75
2023/07/04 01:06:25;;;;;;;2.50;1.75;;;;;;;15.32;100.00;95742.53;5071034;28;24485;-75
2023/07/04 01:08:56;;;;;;;2.92;1.50;;;;;;;15.37;100.00;95746.41;5071737;28;24435;-75
2023/07/04 01:11:30;;;;;;;2.55;1.50;;;;;;;15.37;100.00;95745.59;5072699;28;24438;-75
2023/07/04 01:13:57;;;;;;;3.25;1.83;;;;;;;15.43;100.00;95739.88;5073893;28;24530;-75
2023/07/04 01:16:24;;;;;;;1.80;1.60;;;;;;;15.55;100.00;95743.25;5068278;28;24437;-75
2023/07/04 01:18:54;;;;;;;2.70;1.70;;;;;;;15.57;100.00;95756.97;5083749;28;24481;-75
2023/07/04 01:21:24;;;;;;;2.10;1.60;;;;;;;15.45;100.00;95759.66;5074025;28;24624;-75
2023/07/04 01:24:11;;;;;;;3.85;1.77;;;;;;;15.25;100.00;95758.69;5057367;28;24471;-75
2023/07/04 01:26:42;;;;;;;1.90;1.67;;;;;;;15.25;100.00;95752.66;5070367;28;24527;-75
2023/07/04 01:29:11;;;;;;;1.90;1.50;;;;;;;15.24;100.00;95751.00;5080180;28;24468;-75
2023/07/04 01:31:37;;;;;;;3.30;1.60;;;;;;;15.19;100.00;95746.13;5081624;28;24791;-75
2023/07/04 01:34:05;;;;;;;2.10;1.65;;;;;;;15.23;100.00;95744.91;5077238;28;24485;-74
2023/07/04 01:36:34;;;;;;;2.72;1.67;;;;;;;15.29;100.00;95748.00;5066692;28;24437;-75
2023/07/04 01:39:02;;;;;;;2.50;1.58;;;;;;;15.35;100.00;95743.13;5080386;28;24430;-75
2023/07/04 01:41:29;;;;;;;2.63;1.35;;;;;;;15.37;100.00;95746.41;5080745;28;24546;-75
2023/07/04 01:44:00;;;;;;;2.75;1.50;;;;;;;15.34;100.00;95751.06;5073872;28;24442;-75
2023/07/04 01:46:27;;;;;;;2.50;1.52;;;;;;;15.32;100.00;95743.38;5074892;28;25048;-74
2023/07/04 01:48:53;;;;;;;3.20;1.70;;;;;;;15.24;100.00;95751.81;5084703;28;24438;-75
2023/07/04 01:51:23;;;;;;;2.63;1.50;;;;;;;15.20;100.00;95752.16;5087811;28;24423;-75
2023/07/04 01:53:50;;;;;;;2.08;1.33;;;;;;;15.23;100.00;95752.75;5074563;28;24452;-75
2023/07/04 01:56:16;;;;;;;2.50;1.63;;;;;;;15.16;100.00;95751.59;5079459;28;24434;-75
2023/07/04 01:58:43;;;;;;;1.95;1.50;;;;;;;15.27;100.00;95739.47;5065917;28;24431;-75
2023/07/04 02:01:11;;;;;;;1.88;1.27;;;;;;;15.28;100.00;95738.50;5063744;28;24477;-75
2023/07/04 02:03:37;;;;;;;1.67;1.55;;;;;;;15.31;100.00;95738.25;5059234;28;24446;-75
2023/07/04 02:06:04;;;;;;;2.05;1.55;;;;;;;15.35;100.00;95740.50;5073989;28;24442;-75
2023/07/04 02:08:30;;;;;;;1.90;1.50;;;;;;;15.39;100.00;95739.28;5071205;28;24450;-75
2023/07/04 02:10:56;;;;;;;3.15;1.65;;;;;;;15.40;100.00;95730.50;5075606;28;24430;-75
2023/07/04 02:13:24;;;;;;;1.67;1.33;;;;;;;15.48;100.00;95730.69;5076925;28;24804;-75
2023/07/04 02:15:50;;;;;;;1.70;1.30;;;;;;;15.46;100.00;95735.22;5074672;28;24443;-75
2023/07/04 02:18:18;;;;;;;2.55;1.42;;;;;;;15.49;100.00;95728.91;5068623;28;25084;-75
2023/07/04 02:20:45;;;;;;;1.80;1.20;;;;;;;15.45;100.00;95738.78;5067681;28;24557;-74
2023/07/04 02:23:11;;;;;;;1.90;1.30;;;;;;;15.41;100.00;95732.16;5061260;28;24455;-75
2023/07/04 02:25:40;;;;;;;2.30;1.55;;;;;;;15.43;100.00;95734.66;5071539;28;24850;-75
2023/07/04 02:28:06;;;;;;;2.15;1.50;;;;;;;15.40;100.00;95729.69;5078867;28;24835;-75
2023/07/04 02:30:33;;;;;;;1.90;1.20;;;;;;;15.39;100.00;95728.84;5072206;28;24984;-76
2023/07/04 02:32:59;;;;;;;1.75;1.40;;;;;;;15.45;100.00;95727.50;5078572;28;24437;-75
2023/07/04 02:35:29;;;;;;;2.47;1.38;;;;;;;15.42;100.00;95730.38;5072687;28;24496;-75
2023/07/04 02:37:55;;;;;;;1.90;1.30;;;;;;;15.23;100.00;95728.44;5073002;28;24442;-76
2023/07/04 02:40:22;;;;;;;1.33;1.10;;;;;;;15.16;100.00;95728.13;5077578;28;24849;-76
2023/07/04 02:42:48;;;;;;;2.30;1.40;;;;;;;15.18;100.00;95734.03;5070059;28;24463;-76
2023/07/04 02:45:15;;;;;;;2.22;1.52;;;;;;;15.17;100.00;95739.41;5069772;28;24439;-76
2023/07/04 02:47:41;;;;;;;2.13;1.42;;;;;;;15.16;100.00;95737.72;5076746;28;24439;-76
2023/07/04 02:50:08;;;;;;;2.30;1.60;;;;;;;15.03;100.00;95737.91;5072616;28;24438;-76
2023/07/04 02:52:36;;;;;;;3.50;1.45;;;;;;;15.04;100.00;95738.72;5077256;28;24439;-76
2023/07/04 02:55:03;;;;;;;3.10;1.50;;;;;;;14.96;100.00;95749.78;5080515;28;24439;-76
2023/07/04 02:57:29;;;;;;;3.50;1.33;;;;;;;14.99;100.00;95744.31;5076595;28;24529;-76
2023/07/04 02:59:59;;;;;;;2.60;1.25;;;;;;;15.09;100.00;95747.00;5059114;28;24471;-76
2023/07/04 03:02:25;;;;;;;2.08;1.50;;;;;;;15.15;100.00;95742.13;5077376;28;24478;-76
2023/07/04 03:04:52;;;;;;;2.45;1.40;;;;;;;15.21;100.00;95743.41;5062898;28;24439;-76
2023/07/04 03:07:18;;;;;;;1.60;1.50;;;;;;;15.22;100.00;95742.44;5073834;28;24537;-75
2023/07/04 03:09:46;;;;;;;3.72;1.63;;;;;;;15.24;100.00;95743.16;5064511;28;24431;-76
2023/07/04 03:12:13;;;;;;;2.10;1.50;;;;;;;15.33;100.00;95746.78;5077298;28;24427;-76
2023/07/04 03:14:39;;;;;;;2.00;1.30;;;;;;;15.36;100.00;95754.38;5065430;28;24446;-76
2023/07/04 03:17:05;;;;;;;2.78;1.40;;;;;;;15.37;100.00;95746.41;5071437;28;24972;-76
2023/07/04 03:19:32;;;;;;;2.08;1.45;;;;;;;15.36;100.00;95754.38;5064223;28;24461;-76
2023/07/04 03:21:59;;;;;;;1.88;1.23;;;;;;;15.38;100.00;95755.06;5074476;28;24450;-75
2023/07/04 03:24:25;;;;;;;2.92;1.30;;;;;;;15.40;100.00;95759.22;5070409;28;24445;-76
2023/07/04 03:26:53;;;;;;;2.10;1.45;;;;;;;15.35;100.00;95757.91;5070306;28;24912;-76
2023/07/04 03:29:19;;;;;;;2.28;1.55;;;;;;;15.38;100.00;95753.28;5076026;28;24810;-76
2023/07/04 03:31:46;;;;;;;4.70;1.63;;;;;;;15.37;100.00;95762.06;5075554;28;25116;-76
2023/07/04 03:34:12;;;;;;;3.70;1.67;;;;;;;15.34;100.00;95759.69;5063143;28;24492;-76
2023/07/04 03:36:39;;;;;;;2.40;1.60;;;;;;;15.28;100.00;95759.38;5063100;28;24442;-76
2023/07/04 03:39:05;;;;;;;1.50;1.35;;;;;;;15.32;100.00;95761.63;5075069;28;24859;-76
2023/07/04 03:41:32;;;;;;;2.03;1.50;;;;;;;15.36;100.00;95770.84;5082774;28;24824;-76
2023/07/04 03:44:00;;;;;;;2.40;1.40;;;;;;;15.38;100.00;95766.31;5068035;28;24443;-76
2023/07/04 03:46:26;;;;;;;1.60;1.30;;;;;;;15.44;100.00;95762.41;5073706;28;24469;-76
2023/07/04 03:48:53;;;;;;;2.58;1.58;;;;;;;15.27;100.00;95763.75;5075137;28;24832;-76
2023/07/04 03:51:19;;;;;;;2.47;1.75;;;;;;;15.34;100.00;95767.53;5058435;28;24995;-75
2023/07/04 03:53:48;;;;;;;2.38;1.55;;;;;;;15.41;100.00;95767.88;5079995;28;24434;-75
2023/07/04 03:56:16;;;;;;;2.22;1.73;;;;;;;15.41;100.00;95773.91;5076269;28;24427;-75
2023/07/04 03:58:42;;;;;;;2.47;1.55;;;;;;;15.44;100.00;95771.06;5062852;28;24438;-75
2023/07/04 04:01:10;;;;;;;4.78;1.80;;;;;;;15.44;100.00;95778.06;5065015;28;24459;-75
2023/07/04 04:03:37;;;;;;;2.50;1.60;;;;;;;15.51;100.00;95767.94;5061268;28;24481;-75
2023/07/04 04:06:04;;;;;;;3.35;1.85;;;;;;;15.54;100.00;95767.69;5068528;28;24918;-76
2023/07/04 04:08:31;;;;;;;2.92;1.70;;;;;;;15.60;100.00;95772.41;5063531;28;24471;-76
2023/07/04 04:10:57;;;;;;;4.85;1.90;;;;;;;15.62;100.00;95770.50;5072665;28;24443;-76
2023/07/04 04:13:24;;;;;;;1.57;1.30;;;;;;;15.56;100.00;95769.22;5060716;28;24438;-75
2023/07/04 04:15:51;;;;;;;2.27;1.40;;;;;;;15.55;100.00;95769.34;5075194;28;25013;-76
2023/07/04 04:18:19;;;;;;;3.70;1.70;;;;;;;15.49;100.00;95768.88;5071345;28;24434;-74
2023/07/04 04:20:45;;;;;;;5.82;1.85;;;;;;;15.53;100.00;95763.41;5065747;28;24435;-75
2023/07/04 04:23:12;;;;;;;3.00;1.57;;;;;;;15.56;100.00;95760.56;5058299;28;24463;-75
2023/07/04 04:25:39;;;;;;;5.00;1.50;;;;;;;15.59;100.00;95765.53;5071880;28;24529;-75
2023/07/04 04:28:05;;;;;;;1.97;1.50;;;;;;;15.65;100.00;95768.50;5065947;28;24530;-75
2023/07/04 04:30:32;;;;;;;2.17;1.45;;;;;;;15.68;100.00;95759.56;5075043;28;24443;-75
2023/07/04 04:33:02;;;;;;;2.25;1.65;;;;;;;15.70;100.00;95768.94;5074997;28;24474;-75
2023/07/04 04:35:31;;;;;;;1.50;1.40;;;;;;;15.68;100.00;95776.06;5063903;28;24515;-76
2023/07/04 04:37:57;;;;;;;2.92;1.65;;;;;;;15.71;100.00;95769.75;5076168;28;24435;-75
2023/07/04 04:40:24;;;;;;;1.70;1.55;;;;;;;15.79;100.00;95771.72;5069223;28;24443;-75
2023/07/04 04:42:53;;;;;;;2.97;1.80;;;;;;;15.85;100.00;95766.81;5054379;28;24474;-75
2023/07/04 04:45:20;;;;;;;3.75;1.90;;;;;;;15.89;100.00;95767.38;5077290;28;24443;-75
2023/07/04 04:47:52;;;;;;;3.38;1.88;;;;;;;15.96;100.00;95778.97;5075802;28;24441;-75
2023/07/04 04:50:19;;;;;;;2.97;1.70;;;;;;;16.01;100.00;95778.59;5070369;28;24824;-75
2023/07/04 04:52:47;;;;;;;4.50;1.90;;;;;;;15.97;100.00;95778.00;5077556;28;24438;-75
2023/07/04 04:55:13;;;;;;;2.55;1.70;;;;;;;16.05;100.00;95775.56;5059119;28;25150;-75
2023/07/04 04:57:40;;;;;;;5.60;2.13;;;;;;;16.13;100.00;95781.00;5068229;28;24442;-75
2023/07/04 05:00:08;;;;;;;4.27;2.20;;;;;;;16.02;100.00;95788.91;5070175;28;24517;-75
2023/07/04 05:02:35;;;;;;;3.43;2.10;;;;;;;15.99;100.00;95788.34;5074163;28;24512;-75
2023/07/04 05:05:02;;;;;;;3.42;1.95;;;;;;;16.10;100.00;95793.50;5069110;28;24446;-75
2023/07/04 05:07:29;;;;;;;3.80;2.00;;;;;;;15.99;100.00;95790.97;5062813;28;24466;-75
2023/07/04 05:09:58;;;;;;;2.88;1.70;;;;;;;15.97;100.00;95793.69;5064138;28;24520;-75
2023/07/04 05:12:25;;;;;;;5.20;2.00;;;;;;;16.11;100.00;95793.34;5068489;28;24521;-76
2023/07/04 05:14:51;;;;;;;6.68;2.60;;;;;;;16.26;100.00;95793.84;5062733;28;24434;-75
2023/07/04 05:17:18;;;;;;;5.43;2.13;;;;;;;16.30;100.00;95797.03;5067290;28;24985;-76
2023/07/04 05:19:47;;;;;;;4.45;2.13;;;;;;;16.38;100.00;95802.41;5074629;28;24434;-75
2023/07/04 05:22:14;;;;;;;5.32;1.90;;;;;;;16.38;100.00;95799.81;5052067;28;24457;-76
2023/07/04 05:24:40;;;;;;;6.85;2.50;;;;;;;16.45;100.00;95796.53;5071055;28;24438;-76
2023/07/04 05:27:08;;;;;;;3.45;2.10;;;;;;;16.52;100.00;95801.25;5066656;28;24438;-75
2023/07/04 05:29:35;;;;;;;5.93;1.90;;;;;;;16.52;100.00;95802.06;5056858;28;24481;-76
2023/07/04 05:32:01;;;;;;;4.97;2.10;;;;;;;16.53;100.00;95800.28;5070666;28;24435;-75
2023/07/04 05:34:28;;;;;;;5.95;2.40;;;;;;;16.35;100.00;95803.53;5075546;28;24430;-75
2023/07/04 05:36:54;;;;;;;4.10;2.10;;;;;;;16.42;100.00;95801.19;5063805;28;24435;-76
2023/07/04 05:39:20;;;;;;;4.90;1.90;;;;;;;16.54;100.00;95797.56;5059458;28;24808;-76
2023/07/04 05:41:47;;;;;;;6.15;2.40;;;;;;;16.67;100.00;95798.13;5063872;28;24990;-77
2023/07/04 05:44:17;;;;;;;8.48;2.20;;;;;;;16.80;100.00;95804.97;5078856;28;24438;-75
2023/07/04 05:46:43;;;;;;;5.13;2.20;;;;;;;16.93;100.00;95802.91;5084497;28;24519;-75
2023/07/04 05:49:09;;;;;;;4.38;2.00;;;;;;;17.04;100.00;95800.19;5067265;28;24436;-75
2023/07/04 05:51:36;;;;;;;5.03;2.25;;;;;;;17.04;100.00;95802.78;5073891;28;24441;-75
2023/07/04 05:54:02;;;;;;;6.25;2.40;;;;;;;17.03;100.00;95801.16;5065086;28;24443;-75
2023/07/04 05:56:31;;;;;;;4.20;2.35;;;;;;;17.28;100.00;95798.97;5069227;28;24445;-75
2023/07/04 05:58:59;;;;;;;4.83;2.10;;;;;;;17.17;100.00;95802.56;5071585;28;25836;-76
2023/07/04 06:01:32;;;;;;;4.53;2.10;;;;;;;17.16;100.00;95806.13;5078389;28;24444;-75
2023/07/04 06:03:59;;;;;;;5.22;2.70;;;;;;;17.15;100.00;95802.69;5071272;28;24553;-75
2023/07/04 06:06:30;;;;;;;5.38;2.20;;;;;;;17.20;100.00;95814.53;5071290;28;24968;-75
2023/07/04 06:08:58;;;;;;;5.90;2.43;;;;;;;17.21;100.00;95801.31;5070151;28;24426;-75
2023/07/04 06:11:29;;;;;;;7.88;3.05;;;;;;;17.20;100.00;95810.09;5062244;28;24439;-74
2023/07/04 06:13:55;;;;;;;4.70;2.35;;;;;;;17.30;100.00;95810.13;5082305;28;24503;-75
2023/07/04 06:16:22;;;;;;;6.57;2.45;;;;;;;17.28;100.00;95809.44;5072342;28;24438;-75
2023/07/04 06:18:50;;;;;;;5.75;2.58;;;;;;;17.35;100.00;95808.78;5069826;28;24438;-74
2023/07/04 06:21:19;;;;;;;5.70;2.25;;;;;;;17.25;100.00;95810.56;5074130;28;24940;-75
2023/07/04 06:23:45;;;;;;;5.82;2.22;;;;;;;17.38;100.00;95810.28;5058704;28;24459;-75
2023/07/04 06:26:13;;;;;;;11.13;2.67;;;;;;;17.30;100.00;95810.97;5067905;28;25015;-75
2023/07/04 06:28:41;;;;;;;6.43;2.60;;;;;;;17.37;100.00;95811.25;5059236;28;24841;-75
2023/07/04 06:31:10;;;;;;;5.10;2.30;;;;;;;17.48;100.00;95813.72;5080795;28;24434;-75
2023/07/04 06:33:37;;;;;;;6.95;2.40;;;;;;;17.57;100.00;95817.31;5069500;28;24462;-75
2023/07/04 06:36:08;;;;;;;5.15;2.42;;;;;;;17.56;100.00;95811.25;5078938;28;24440;-75
2023/07/04 06:38:35;;;;;;;13.02;2.80;;;;;;;17.59;100.00;95815.38;5061463;28;24853;-75
2023/07/04 06:41:07;;;;;;;5.88;2.80;;;;;;;17.60;100.00;95814.41;5066033;28;24999;-74
2023/07/04 06:43:35;;;;;;;8.95;2.95;;;;;;;17.71;100.00;95816.88;5079916;28;25125;-75
2023/07/04 06:46:02;;;;;;;6.23;2.50;;;;;;;17.80;100.00;95820.50;5076549;28;24534;-75
2023/07/04 06:48:29;;;;;;;7.83;2.60;;;;;;;17.75;100.00;95826.16;5077889;28;24437;-75
2023/07/04 06:50:57;;;;;;;6.57;2.65;;;;;;;17.79;100.00;95824.06;5058670;28;24433;-75
2023/07/04 06:53:25;;;;;;;5.80;2.83;;;;;;;17.84;100.00;95829.75;5076645;28;24550;-75
2023/07/04 06:55:51;;;;;;;8.67;3.00;;;;;;;17.76;100.00;95835.69;5076796;28;24458;-75
2023/07/04 06:58:18;;;;;;;7.70;2.75;;;;;;;17.72;100.00;95836.88;5086065;28;24529;-74
2023/07/04 07:00:44;;;;;;;7.07;3.33;;;;;;;17.64;100.00;95837.56;5067919;28;24435;-75
2023/07/04 07:03:11;;;;;;;7.43;2.80;;;;;;;17.54;100.00;95843.75;5071240;28;24535;-75
2023/07/04 07:05:38;;;;;;;6.78;2.92;;;;;;;17.57;100.00;95848.72;5066221;28;24831;-75
2023/07/04 07:08:04;;;;;;;6.72;2.35;;;;;;;17.73;100.00;95848.19;5068520;28;24829;-75
2023/07/04 07:10:36;;;;;;;8.00;2.80;;;;;;;17.84;100.00;95845.47;5070635;28;24435;-75
2023/07/04 07:13:02;;;;;;;6.20;2.65;;;;;;;17.91;100.00;95851.81;5070481;28;24442;-75
2023/07/04 07:15:29;;;;;;;5.85;2.85;;;;;;;17.84;100.00;95858.56;5076806;28;24442;-76
2023/07/04 07:17:55;;;;;;;7.97;2.75;;;;;;;17.91;100.00;95849.19;5078524;28;24446;-76
2023/07/04 07:20:22;;;;;;;4.75;2.58;;;;;;;17.94;100.00;95850.69;5083819;28;24438;-76
2023/07/04 07:22:48;;;;;;;5.72;2.78;;;;;;;17.97;100.00;95848.59;5062825;28;25105;-76
2023/07/04 07:25:14;;;;;;;4.10;2.45;;;;;;;17.89;100.00;95841.44;5064097;28;24434;-74
2023/07/04 07:27:43;;;;;;;4.47;2.38;;;;;;;18.12;100.00;95841.13;5072112;28;24480;-75
2023/07/04 07:30:10;;;;;;;4.88;2.70;;;;;;;18.22;100.00;95847.19;5068306;28;24444;-74
2023/07/04 07:32:36;;;;;;;7.13;2.58;;;;;;;18.32;100.00;95844.56;5070859;28;24431;-75
2023/07/04 07:35:03;;;;;;;3.42;2.15;;;;;;;18.37;100.00;95852.81;5072034;28;24434;-73
2023/07/04 07:37:29;;;;;;;6.32;2.78;;;;;;;18.35;100.00;95852.13;5076450;28;24441;-74
2023/07/04 07:39:56;;;;;;;6.78;2.55;;;;;;;18.60;100.00;95853.28;5074928;28;24442;-74
2023/07/04 07:42:22;;;;;;;6.28;2.65;;;;;;;18.70;100.00;95854.09;5064008;28;24488;-73
2023/07/04 07:44:50;;;;;;;6.53;2.90;;;;;;;18.67;100.00;95851.75;5077714;28;24446;-74
2023/07/04 07:47:16;;;;;;;5.83;3.07;;;;;;;18.72;100.00;95859.22;5077877;28;24439;-74
2023/07/04 07:49:43;;;;;;;8.15;2.88;;;;;;;18.65;100.00;95863.34;5063846;28;24458;-74
2023/07/04 07:52:09;;;;;;;6.00;2.72;;;;;;;18.72;100.00;95860.03;5064559;28;24980;-74
2023/07/04 07:54:36;;;;;;;4.18;2.35;;;;;;;18.82;100.00;95860.00;5070412;28;24443;-74
2023/07/04 07:57:03;;;;;;;6.68;2.83;;;;;;;18.81;100.00;95855.75;5085729;28;24517;-74
2023/07/04 07:59:29;;;;;;;7.25;2.97;;;;;;;19.06;100.00;95846.38;5079750;28;24438;-74
2023/07/04 08:01:57;;;;;;;8.63;3.07;;;;;;;19.19;100.00;95846.81;5081849;28;24529;-74
2023/07/04 08:04:23;;;;;;;6.13;3.03;;;;;;;19.54;100.00;95847.84;5068080;28;24498;-73
2023/07/04 08:06:50;;;;;;;5.07;2.88;;;;;;;19.74;100.00;95843.31;5064763;28;24515;-74
2023/07/04 08:09:19;;;;;;;6.88;3.08;;;;;;;19.80;100.00;95846.16;5060282;28;24487;-74
2023/07/04 08:11:46;;;;;;;5.43;3.08;;;;;;;19.64;100.00;95845.19;5069003;28;24439;-74
2023/07/04 08:14:14;;;;;;;8.98;2.78;;;;;;;19.59;100.00;95849.03;5075945;28;24434;-74
2023/07/04 08:16:43;;;;;;;5.30;2.75;;;;;;;19.87;100.00;95843.72;5068133;28;24514;-74
2023/07/04 08:19:11;;;;;;;7.38;3.00;;;;;;;19.89;100.00;95844.41;5081738;28;24435;-74
2023/07/04 08:21:37;;;;;;;5.87;3.13;;;;;;;19.75;100.00;95851.03;5068722;28;24446;-74
2023/07/04 08:24:10;;;;;;;11.07;2.58;;;;;;;19.84;100.00;95851.94;5073076;28;24463;-74
2023/07/04 08:26:37;;;;;;;10.52;3.17;;;;;;;19.78;100.00;95855.16;5084469;28;24781;-74
2023/07/04 08:29:05;;;;;;;6.55;2.88;;;;;;;19.96;100.00;95844.63;5070349;28;25342;-74
2023/07/04 08:31:33;;;;;;;5.82;3.20;;;;;;;20.37;100.00;95852.81;5085689;28;24476;-74
2023/07/04 08:33:59;;;;;;;6.65;3.33;;;;;;;20.87;100.00;95850.31;5073088;28;24431;-74
2023/07/04 08:36:27;;;;;;;8.02;3.50;;;;;;;21.31;100.00;95839.59;5082239;28;24440;-74
2023/07/04 08:38:54;;;;;;;6.68;3.15;;;;;;;21.28;99.14;95850.47;5069395;28;24431;-74
2023/07/04 08:41:27;;;;;;;6.93;3.30;;;;;;;21.39;100.00;95839.66;5080771;28;24924;-74
2023/07/04 08:43:59;;;;;;;4.00;2.78;;;;;;;21.62;96.80;95837.25;5078283;28;24562;-74
2023/07/04 08:46:28;;;;;;;11.25;3.83;;;;;;;21.48;87.54;95838.69;5077552;28;24579;-74
2023/07/04 08:48:55;;;;;;;10.50;3.87;;;;;;;21.26;76.95;95845.38;5074257;28;24435;-74
2023/07/04 08:51:29;;;;;;;6.35;3.83;;;;;;;21.27;72.78;95833.84;5079708;28;24430;-74
2023/07/04 08:53:59;;;;;;;7.23;3.67;;;;;;;21.04;74.31;95835.41;5076532;28;24434;-74
2023/07/04 08:56:33;;;;;;;7.32;3.58;;;;;;;21.43;71.46;95838.38;5080453;28;24971;-74
2023/07/04 08:59:08;;;;;;;7.97;4.10;;;;;;;21.68;66.32;95833.94;5077215;28;24562;-74
2023/07/04 09:01:44;;;;;;;9.10;4.30;;;;;;;21.84;65.08;95835.78;5077463;28;24523;-74
2023/07/04 09:04:18;;;;;;;8.53;4.00;;;;;;;21.62;66.71;95825.88;5080141;28;24469;-74
2023/07/04 09:06:51;;;;;;;6.88;3.80;;;;;;;21.03;72.39;95837.22;5062420;28;24430;-75
2023/07/04 09:09:25;;;;;;;7.10;4.28;;;;;;;21.11;70.64;95832.97;5071924;28;24495;-74
2023/07/04 09:11:53;;;;;;;7.72;4.00;;;;;;;20.86;69.53;95830.25;5069524;28;24439;-74
2023/07/04 09:14:26;;;;;;;7.90;3.78;;;;;;;20.85;68.30;95828.59;5078762;28;24438;-74
2023/07/04 09:16:56;;;;;;;8.80;4.22;;;;;;;20.68;65.48;95819.78;5064158;28;24976;-74
2023/07/04 09:19:23;;;;;;;7.90;4.28;;;;;;;20.57;68.14;95822.69;5068712;28;24488;-74
2023/07/04 09:21:49;;;;;;;7.43;4.38;;;;;;;20.46;69.13;95826.38;5060432;28;24489;-74
2023/07/04 09:24:16;;;;;;;8.65;4.15;;;;;;;21.05;68.83;95823.91;5058089;28;24871;-74
2023/07/04 09:26:49;;;;;;;8.95;5.00;;;;;;;20.93;61.88;95827.81;5060272;28;24432;-74
2023/07/04 09:29:19;;;;;;;10.00;5.43;;;;;;;20.75;60.19;95826.06;5060210;28;24441;-74
2023/07/04 09:31:47;;;;;;;6.43;4.30;;;;;;;20.92;62.93;95824.34;5070999;28;25003;-74
2023/07/04 09:34:16;;;;;;;6.70;4.30;;;;;;;21.01;61.73;95828.66;5063744;28;24542;-74
2023/07/04 09:36:43;;;;;;;10.60;5.22;;;;;;;21.14;59.06;95824.75;5074810;28;24778;-74
2023/07/04 09:39:09;;;;;;;9.00;4.87;;;;;;;21.02;58.40;95832.97;5069031;28;24461;-74
2023/07/04 09:41:39;;;;;;;8.65;5.00;;;;;;;21.05;59.56;95825.69;5067606;28;24442;-74
2023/07/04 09:44:17;;;;;;;7.72;5.03;;;;;;;21.06;59.47;95836.06;5072642;28;24537;-74
2023/07/04 09:46:51;;;;;;;11.73;4.93;;;;;;;21.24;58.33;95828.88;5059957;28;24508;-74
2023/07/04 09:49:24;;;;;;;9.95;4.72;;;;;;;21.01;59.32;95826.03;5054325;28;24492;-74
2023/07/04 09:52:02;;;;;;;9.10;5.25;;;;;;;20.78;58.76;95830.22;5065579;28;24441;-74
2023/07/04 09:54:29;;;;;;;9.40;5.70;;;;;;;20.61;57.24;95834.56;5069733;28;24431;-74
2023/07/04 09:56:57;;;;;;;8.07;4.93;;;;;;;20.50;57.26;95827.75;5076510;28;24438;-74
2023/07/04 09:59:26;;;;;;;12.07;5.18;;;;;;;20.50;60.06;95834.81;5071858;28;24731;-74
2023/07/04 10:02:11;;;;;;;6.82;4.85;;;;;;;20.79;59.47;95829.22;5079186;28;24448;-74
2023/07/04 10:04:40;;;;;;;7.15;4.72;;;;;;;21.07;57.41;95824.56;5071351;28;24550;-74
2023/07/04 10:07:13;;;;;;;7.18;4.50;;;;;;;21.10;58.22;95824.25;5070098;28;25052;-74
2023/07/04 10:09:44;;;;;;;8.18;4.63;;;;;;;21.29;57.82;95825.78;5068192;28;25011;-74
2023/07/04 10:12:12;;;;;;;7.83;4.50;;;;;;;21.35;57.73;95824.34;5068067;28;24470;-74
2023/07/04 10:14:46;;;;;;;9.05;4.40;;;;;;;21.78;55.28;95817.16;5075021;28;24609;-74
2023/07/04 10:17:17;;;;;;;9.48;4.80;;;;;;;22.32;49.00;95810.41;5060607;28;24500;-74
2023/07/04 10:19:45;;;;;;;5.80;4.32;;;;;;;22.29;49.24;95810.72;5078429;28;24431;-74
2023/07/04 10:22:12;;;;;;;7.28;4.22;;;;;;;22.41;48.31;95814.66;5064933;28;24430;-74
2023/07/04 10:24:38;;;;;;;5.82;4.22;;;;;;;22.15;48.68;95809.59;5068034;28;24460;-74
2023/07/04 10:27:10;;;;;;;6.13;4.18;;;;;;;21.88;49.03;95808.09;5070824;28;25004;-74
2023/07/04 10:29:41;;;;;;;7.97;4.37;;;;;;;21.93;50.46;95808.41;5068930;28;24918;-73
2023/07/04 10:32:13;;;;;;;6.25;3.97;;;;;;;21.90;49.14;95808.75;5071765;28;24485;-74
2023/07/04 10:34:41;;;;;;;5.07;4.00;;;;;;;22.12;49.44;95811.69;5064723;28;24917;-74
2023/07/04 10:37:10;;;;;;;7.88;4.82;;;;;;;22.10;49.33;95813.66;5070224;28;24975;-74
2023/07/04 10:39:38;;;;;;;6.53;3.85;;;;;;;22.17;49.80;95812.88;5067667;28;24991;-73
2023/07/04 10:42:12;;;;;;;9.98;4.55;;;;;;;22.13;51.78;95800.97;5072188;28;24871;-73
2023/07/04 10:44:43;;;;;;;8.40;4.75;;;;;;;22.14;51.89;95807.13;5062018;28;24459;-73
2023/07/04 10:47:18;;;;;;;5.43;4.50;;;;;;;21.87;52.51;95797.69;5072627;28;24788;-74
2023/07/04 10:49:50;;;;;;;9.43;4.67;;;;;;;21.76;53.83;95798.84;5061158;28;24454;-74
2023/07/04 10:52:20;;;;;;;7.85;4.50;;;;;;;21.43;54.62;95798.84;5072085;28;24443;-74
2023/07/04 10:54:46;;;;;;;5.38;3.85;;;;;;;21.62;54.42;95799.53;5066461;28;24481;-74
2023/07/04 10:57:21;;;;;;;6.60;3.90;;;;;;;21.89;53.78;95796.56;5056989;28;24859;-73
2023/07/04 10:59:50;;;;;;;6.20;4.30;;;;;;;21.96;54.09;95792.25;5051334;28;24446;-72
2023/07/04 11:02:29;;;;;;;6.85;4.43;;;;;;;21.81;53.26;95795.75;5075203;28;24565;-74
2023/07/04 11:05:00;;;;;;;4.90;3.80;;;;;;;21.81;52.50;95793.91;5074634;28;24459;-73
2023/07/04 11:07:28;;;;;;;5.18;3.65;;;;;;;21.94;53.37;95796.03;5070483;28;25033;-73
2023/07/04 11:09:57;;;;;;;7.27;4.23;;;;;;;21.70;54.05;95799.53;5059178;28;24530;-73
2023/07/04 11:12:27;;;;;;;6.40;4.07;;;;;;;21.50;54.17;95799.00;5059479;28;25004;-73
2023/07/04 11:15:00;;;;;;;4.82;3.83;;;;;;;21.92;53.94;95798.03;5068747;28;24438;-74
2023/07/04 11:17:31;;;;;;;4.40;3.45;;;;;;;22.22;52.43;95793.91;5079302;28;24483;-73
2023/07/04 11:20:10;;;;;;;7.20;3.35;;;;;;;21.90;51.22;95792.91;5074798;28;24996;-73
2023/07/04 11:22:44;;;;;;;4.85;3.40;;;;;;;22.03;51.76;95791.63;5054026;28;24450;-73
2023/07/04 11:25:53;;;;;;;7.40;3.60;;;;;;;22.16;51.98;95792.75;5060384;28;24496;-73
2023/07/04 11:28:26;;;;;;;6.38;3.35;;;;;;;22.67;52.22;95792.47;5074477;28;24542;-73
2023/07/04 11:31:06;;;;;;;5.93;3.55;;;;;;;22.89;51.49;95789.09;5072075;28;24431;-73
2023/07/04 11:33:40;;;;;;;6.18;3.92;;;;;;;22.57;51.35;95791.84;5069348;28;25032;-72